Belfast Municipal (BST)
Belfast, ME
Field Elevation: 198
Lat: 44°24.56N  Long: 69°00.71W
CTAF/Unicom Freq: 122.9750
   
     For Weather-by-Phone, call 207-930-7071
Weather Advisories
2022-05-27   12:02 Z
Altimeter 29.93" Hg
Wind 270° @ 9 KT
Gusts 14 KT
Visibility 10 SM
Ceiling CLR
Temperature 18° C (64° F)
Dewpoint 14° C (57° F)
Relative Humidity 80%
Density Altitude --
Condensation Altitude 1,900 feet
Wind and Runways
Indicated Runway = 33
Headwind = 4 kt
Crosswind = 8 kt
History
 
 
 
More Info
NOAA Forecast
 
 
About Us
Belfort Instrument
 
 
FAA Disclaimer: The data displayed is for advisory purposes only and is not to be used for flight planning or operations. For official data, please call 207-930-7071 to hear the current automated AWOS voice message.
  METAR BST 271202Z AUTO 27009G14KT 10 SM CLR 18/14 A2993